createdAt,value
2023-04-15T00:04:51.464Z,99356.41
2023-04-15T00:09:55.242Z,99360.16
2023-04-15T00:14:57.169Z,99348.31
2023-04-15T00:19:59.964Z,99339.75
2023-04-15T00:25:02.153Z,99346.75
2023-04-15T00:30:04.219Z,99340.25
2023-04-15T00:35:06.196Z,99338.97
2023-04-15T00:40:17.246Z,99335.63
2023-04-15T00:45:19.261Z,99334.59
2023-04-15T00:50:20.814Z,99340.84
2023-04-15T00:55:23.107Z,99336.97
2023-04-15T01:00:24.887Z,99335.84
2023-04-15T01:05:27.105Z,99335.44
2023-04-15T01:10:28.719Z,99332.53
2023-04-15T01:15:31.352Z,99332.72
2023-04-15T01:20:34.553Z,99333.91
2023-04-15T01:25:37.112Z,99328.56
2023-04-15T01:30:38.697Z,99325.97
2023-04-15T01:35:40.309Z,99325.53
2023-04-15T01:40:41.817Z,99326.06
2023-04-15T01:45:43.355Z,99325.81
2023-04-15T01:50:45.775Z,99330.34
2023-04-15T01:55:47.439Z,99337.09
2023-04-15T02:00:49.716Z,99323.81
2023-04-15T02:05:51.445Z,99326.88
2023-04-15T02:10:53.027Z,99337.81
2023-04-15T02:15:55.684Z,99345.88
2023-04-15T02:20:58.688Z,99344.56
2023-04-15T02:26:00.477Z,99337.88
2023-04-15T02:31:09.596Z,99336.81
2023-04-15T02:36:12.452Z,99334.69
2023-04-15T02:41:14.340Z,99340.16
2023-04-15T02:46:16.906Z,99347.97
2023-04-15T02:51:21.434Z,99342.31
2023-04-15T02:56:23.603Z,99344.47
2023-04-15T03:01:26.178Z,99346.72
2023-04-15T03:06:27.784Z,99347.47
2023-04-15T03:11:29.839Z,99341.56
2023-04-15T03:16:31.543Z,99339.63
2023-04-15T03:21:33.474Z,99341.50
2023-04-15T03:26:35.154Z,99345.59
2023-04-15T03:31:43.611Z,99344.19
2023-04-15T03:36:46.869Z,99348.75
2023-04-15T03:41:48.428Z,99353.03
2023-04-15T03:46:50.146Z,99352.72
2023-04-15T03:51:54.300Z,99356.28
2023-04-15T03:56:56.832Z,99351.28
2023-04-15T04:01:58.597Z,99344.13
2023-04-15T04:07:00.166Z,99351.66
2023-04-15T04:12:02.669Z,99353.75
2023-04-15T04:17:04.320Z,99355.53
2023-04-15T04:22:06.494Z,99362.19
2023-04-15T04:27:08.130Z,99365.81
2023-04-15T04:32:09.972Z,99359.59
2023-04-15T04:37:11.883Z,99360.38
2023-04-15T04:42:13.423Z,99370.75
2023-04-15T04:47:14.997Z,99371.66
2023-04-15T04:52:16.669Z,99377.91
2023-04-15T04:57:18.236Z,99386.91
2023-04-15T05:02:19.872Z,99388.31
2023-04-15T05:07:22.165Z,99381.94
2023-04-15T05:12:23.762Z,99387.88
2023-04-15T05:17:25.305Z,99393.88
2023-04-15T05:22:26.959Z,99390.06
2023-04-15T05:27:28.508Z,99389.59
2023-04-15T05:32:30.045Z,99395.78
2023-04-15T05:37:31.600Z,99391.28
2023-04-15T05:42:33.233Z,99393.00
2023-04-15T05:47:38.336Z,99395.50
2023-04-15T05:52:39.869Z,99409.44
2023-04-15T05:57:41.461Z,99414.81
2023-04-15T06:02:43.447Z,99423.56
2023-04-15T06:07:47.252Z,99416.88
2023-04-15T06:12:50.007Z,99412.63
2023-04-15T06:17:51.645Z,99427.22
2023-04-15T06:22:53.420Z,99431.31
2023-04-15T06:27:54.937Z,99439.56
2023-04-15T06:32:56.563Z,99430.69
2023-04-15T06:37:58.100Z,99432.78
2023-04-15T06:42:59.677Z,99424.00
2023-04-15T06:48:01.477Z,99425.66
2023-04-15T06:53:03.150Z,99418.69
2023-04-15T06:58:04.687Z,99416.94
2023-04-15T07:03:06.317Z,99420.03
2023-04-15T07:08:07.893Z,99419.66
2023-04-15T07:13:09.480Z,99421.88
2023-04-15T07:18:11.245Z,99408.13
2023-04-15T07:23:12.758Z,99409.13
2023-04-15T07:28:14.265Z,99412.78
2023-04-15T07:33:15.885Z,99409.28
2023-04-15T07:38:17.516Z,99409.66
2023-04-15T07:43:20.672Z,99412.09
2023-04-15T07:48:22.211Z,99416.75
2023-04-15T07:53:24.024Z,99415.63
2023-04-15T07:58:25.761Z,99412.66
2023-04-15T08:03:27.703Z,99409.19
2023-04-15T08:08:29.355Z,99406.59
2023-04-15T08:13:31.062Z,99418.81
2023-04-15T08:18:32.571Z,99418.28
2023-04-15T08:23:34.645Z,99419.50
2023-04-15T08:28:38.559Z,99428.22
2023-04-15T08:33:40.124Z,99413.13
2023-04-15T08:38:41.849Z,99411.66
2023-04-15T08:43:54.825Z,99418.56
2023-04-15T08:48:57.678Z,99415.91
2023-04-15T08:54:00.148Z,99426.75
2023-04-15T08:59:02.543Z,99407.78
2023-04-15T09:04:08.165Z,99408.59
2023-04-15T09:09:09.921Z,99427.06
2023-04-15T09:14:11.973Z,99434.09
2023-04-15T09:19:24.198Z,99428.03
2023-04-15T09:24:33.631Z,99431.50
2023-04-15T09:29:35.279Z,99430.44
2023-04-15T09:34:37.768Z,99437.63
2023-04-15T09:39:50.550Z,99427.97
2023-04-15T09:44:55.434Z,99428.63
2023-04-15T09:49:58.480Z,99450.94
2023-04-15T09:55:00.960Z,99455.69
2023-04-15T10:00:04.332Z,99442.84
2023-04-15T10:05:11.298Z,99447.94
2023-04-15T10:10:13.544Z,99470.25
2023-04-15T10:15:17.523Z,99471.97
2023-04-15T10:20:19.760Z,99468.19
2023-04-15T10:25:22.120Z,99470.16
2023-04-15T10:30:26.614Z,99474.78
2023-04-15T10:35:30.726Z,99479.63
2023-04-15T10:40:33.478Z,99488.53
2023-04-15T10:45:37.208Z,99490.66
2023-04-15T10:50:39.456Z,99499.38
2023-04-15T10:55:41.051Z,99477.53
2023-04-15T11:00:52.386Z,99511.84
2023-04-15T11:05:54.245Z,99500.06
2023-04-15T11:10:55.881Z,99512.19
2023-04-15T11:15:58.579Z,99503.97
2023-04-15T11:21:08.356Z,99514.06
2023-04-15T11:26:12.212Z,99501.22
2023-04-15T11:31:16.397Z,99504.50
2023-04-15T11:36:18.045Z,99516.47
2023-04-15T11:41:23.469Z,99522.25
2023-04-15T11:46:31.951Z,99521.34
2023-04-15T11:51:35.322Z,99517.28
2023-04-15T11:56:36.854Z,99518.63
2023-04-15T12:01:46.753Z,99524.28
2023-04-15T12:06:48.913Z,99522.38
2023-04-15T12:11:53.033Z,99530.16
2023-04-15T12:16:58.640Z,99535.19
2023-04-15T12:22:11.850Z,99535.25
2023-04-15T12:27:14.924Z,99534.44
2023-04-15T12:32:19.767Z,99543.56
2023-04-15T12:37:21.715Z,99559.56
2023-04-15T12:42:23.227Z,99529.78
2023-04-15T12:47:24.799Z,99547.72
2023-04-15T12:52:26.363Z,99533.28
2023-04-15T12:57:27.959Z,99527.75
2023-04-15T13:02:29.561Z,99554.03
2023-04-15T13:07:31.578Z,99553.66
2023-04-15T13:12:36.406Z,99540.44
2023-04-15T13:17:38.582Z,99553.38
2023-04-15T13:22:40.595Z,99561.72
2023-04-15T13:27:42.613Z,99567.94
2023-04-15T13:32:44.333Z,99563.16
2023-04-15T13:37:46.101Z,99582.22
2023-04-15T13:42:47.603Z,99594.63
2023-04-15T13:47:49.214Z,99602.34
2023-04-15T13:52:50.858Z,99594.06
2023-04-15T13:57:52.506Z,99608.97
2023-04-15T14:02:54.153Z,99622.75
2023-04-15T14:07:55.903Z,99643.09
2023-04-15T14:12:57.451Z,99665.84
2023-04-15T14:17:59.061Z,99675.34
2023-04-15T14:23:00.862Z,99688.88
2023-04-15T14:28:03.317Z,99686.88
2023-04-15T14:33:04.984Z,99695.38
2023-04-15T14:38:10.410Z,99707.44
2023-04-15T14:43:11.985Z,99724.50
2023-04-15T14:48:13.687Z,99725.88
2023-04-15T14:53:15.376Z,99720.00
2023-04-15T14:58:16.885Z,99725.81
2023-04-15T15:03:18.724Z,99736.50
2023-04-15T15:08:20.831Z,99737.13
2023-04-15T15:13:22.398Z,99740.44
2023-04-15T15:18:25.546Z,99741.34
2023-04-15T15:23:27.238Z,99749.97
2023-04-15T15:28:28.779Z,99761.13
2023-04-15T15:33:30.483Z,99756.09
2023-04-15T15:38:33.796Z,99737.19
2023-04-15T15:43:35.536Z,99755.78
2023-04-15T15:48:37.123Z,99766.19
2023-04-15T15:53:38.622Z,99770.72
2023-04-15T15:58:40.235Z,99782.44
2023-04-15T16:03:41.956Z,99786.81
2023-04-15T16:08:43.633Z,99794.75
2023-04-15T16:13:45.147Z,99812.78
2023-04-15T16:18:46.646Z,99836.25
2023-04-15T16:23:48.155Z,99855.19
2023-04-15T16:28:49.821Z,99896.75
2023-04-15T16:33:51.333Z,99928.59
2023-04-15T16:38:53.231Z,99945.16
2023-04-15T16:43:56.749Z,99960.16
2023-04-15T16:48:58.368Z,99954.13
2023-04-15T16:53:59.923Z,99975.75
2023-04-15T16:59:01.418Z,99988.72
2023-04-15T17:04:03.436Z,100004.34
2023-04-15T17:09:05.491Z,100005.78
2023-04-15T17:14:07.601Z,99994.25
2023-04-15T17:19:09.127Z,100000.00
2023-04-15T17:24:10.960Z,100002.41
2023-04-15T17:29:13.374Z,100015.06
2023-04-15T17:34:16.003Z,100038.78
2023-04-15T17:39:17.730Z,100051.53
2023-04-15T17:44:19.360Z,100061.94
2023-04-15T17:49:20.908Z,100068.69
2023-04-15T17:54:22.667Z,100089.28
2023-04-15T17:59:27.630Z,100100.66
2023-04-15T18:04:29.267Z,100110.31
2023-04-15T18:09:31.223Z,100126.66
2023-04-15T18:14:35.032Z,100128.81
2023-04-15T18:19:36.764Z,100132.81
2023-04-15T18:24:38.580Z,100142.25
2023-04-15T18:29:40.170Z,100158.22
2023-04-15T18:34:42.818Z,100168.06
2023-04-15T18:39:44.399Z,100168.28
2023-04-15T18:44:45.907Z,100176.25
2023-04-15T18:49:47.510Z,100184.00
2023-04-15T18:54:49.069Z,100187.34
2023-04-15T18:59:50.618Z,100193.00
2023-04-15T19:04:52.158Z,100203.50
2023-04-15T19:09:53.733Z,100212.06
2023-04-15T19:14:55.461Z,100209.75
2023-04-15T19:19:57.087Z,100216.44
2023-04-15T19:24:58.705Z,100221.66
2023-04-15T19:30:00.214Z,100228.53
2023-04-15T19:35:01.957Z,100227.66
2023-04-15T19:40:03.878Z,100232.03
2023-04-15T19:45:05.958Z,100238.53
2023-04-15T19:50:07.866Z,100248.63
2023-04-15T19:55:09.473Z,100245.88
2023-04-15T20:00:11.601Z,100256.78
2023-04-15T20:05:13.870Z,100262.44
2023-04-15T20:10:15.457Z,100262.03
2023-04-15T20:15:17.257Z,100259.09
2023-04-15T20:20:18.913Z,100255.50
2023-04-15T20:25:20.475Z,100268.28
2023-04-15T20:30:22.107Z,100260.94
2023-04-15T20:35:24.983Z,100273.16
2023-04-15T20:40:26.614Z,100280.47
2023-04-15T20:45:28.160Z,100275.47
2023-04-15T20:50:29.814Z,100275.88
2023-04-15T20:55:31.303Z,100279.69
2023-04-15T21:00:33.298Z,100289.53
2023-04-15T21:05:34.864Z,100285.53
2023-04-15T21:10:36.819Z,100287.41
2023-04-15T21:15:39.215Z,100301.06
2023-04-15T21:20:40.703Z,100306.09
2023-04-15T21:25:43.344Z,100308.00
2023-04-15T21:30:45.845Z,100310.94
2023-04-15T21:35:47.513Z,100313.88
2023-04-15T21:40:52.367Z,100316.59
2023-04-15T21:46:23.174Z,100324.56
2023-04-15T21:51:15.758Z,100330.00
2023-04-15T21:56:17.316Z,100335.72
2023-04-15T22:01:18.889Z,100342.63
2023-04-15T22:06:20.506Z,100345.34
2023-04-15T22:11:28.754Z,100345.34
2023-04-15T22:16:30.542Z,100345.97
2023-04-15T22:21:32.437Z,100353.31
2023-04-15T22:26:33.998Z,100353.13
2023-04-15T22:31:35.806Z,100358.78
2023-04-15T22:36:37.342Z,100368.03
2023-04-15T22:41:38.914Z,100361.31
2023-04-15T22:46:40.718Z,100378.72
2023-04-15T22:51:42.309Z,100381.44
2023-04-15T22:56:43.884Z,100383.78
2023-04-15T23:01:45.580Z,100387.56
2023-04-15T23:06:47.497Z,100390.69
2023-04-15T23:11:49.413Z,100391.31
2023-04-15T23:16:51.062Z,100392.81
2023-04-15T23:21:54.088Z,100404.56
2023-04-15T23:26:57.196Z,100404.34
2023-04-15T23:31:59.128Z,100400.59
2023-04-15T23:37:00.930Z,100404.34
2023-04-15T23:42:03.404Z,100408.97
2023-04-15T23:47:05.202Z,100424.72
2023-04-15T23:52:07.237Z,100412.97
2023-04-15T23:57:08.799Z,100415.25
